Time;durP1;ratioP1;P1;durP2;ratioP2;P2;SDS_P1;SDS_P2;PMS_P1;PMS_P2;Temp;Humidity;BMP_temperature;BMP_pressure;BME280_temperature;BME280_humidity;BME280_pressure;Samples;Min_cycle;Max_cycle;Signal;HPM_P1;HPM_P2
2021/01/30 00:03:09;;;;;;;0.93;0.50;;;;;;;;;;10340111;28;20314;-70
2021/01/30 00:08:12;;;;;;;2.10;0.37;;;;;;;;;;10365498;28;20194;-71
2021/01/30 00:13:14;;;;;;;2.23;0.60;;;;;;;;;;10362995;28;20385;-71
2021/01/30 00:18:15;;;;;;;1.13;0.50;;;;;;;;;;10363948;28;20194;-70
2021/01/30 00:23:18;;;;;;;1.37;0.43;;;;;;;;;;10343767;28;20288;-70
2021/01/30 00:28:20;;;;;;;1.67;0.53;;;;;;;;;;10372833;28;20209;-69
2021/01/30 00:33:21;;;;;;;0.57;0.43;;;;;;;;;;10345668;28;20244;-68
2021/01/30 00:38:24;;;;;;;0.80;0.40;;;;;;;;;;10358937;28;20372;-69
2021/01/30 00:43:25;;;;;;;1.50;0.37;;;;;;;;;;10360714;28;20221;-71
2021/01/30 00:48:27;;;;;;;1.13;0.67;;;;;;;;;;10355843;28;20631;-72
2021/01/30 00:53:29;;;;;;;0.70;0.40;;;;;;;;;;10369103;28;20232;-71
2021/01/30 00:58:31;;;;;;;1.30;0.30;;;;;;;;;;10369015;28;20191;-70
2021/01/30 01:03:33;;;;;;;0.63;0.60;;;;;;;;;;10365842;28;20222;-69
2021/01/30 01:08:37;;;;;;;0.90;0.33;;;;;;;;;;10369404;28;20194;-71
2021/01/30 01:13:39;;;;;;;0.83;0.50;;;;;;;;;;10365709;28;20297;-71
2021/01/30 01:18:40;;;;;;;1.70;0.53;;;;;;;;;;10367065;28;20536;-72
2021/01/30 01:23:43;;;;;;;0.93;0.30;;;;;;;;;;10358785;28;20250;-72
2021/01/30 01:28:45;;;;;;;0.63;0.30;;;;;;;;;;10353738;28;20280;-71
2021/01/30 01:33:47;;;;;;;0.53;0.50;;;;;;;;;;10367860;28;20249;-71
2021/01/30 01:38:50;;;;;;;0.30;0.30;;;;;;;;;;10365284;28;20206;-71
2021/01/30 01:43:52;;;;;;;0.90;0.60;;;;;;;;;;10362852;28;20293;-70
2021/01/30 01:48:56;;;;;;;1.13;0.40;;;;;;;;;;10344736;28;20195;-70
2021/01/30 01:54:04;;;;;;;0.97;0.70;;;;;;;;;;10347129;28;20241;-70
2021/01/30 01:59:08;;;;;;;1.33;0.50;;;;;;;;;;10361830;28;20209;-69
2021/01/30 02:04:11;;;;;;;1.60;0.40;;;;;;;;;;10367294;28;20342;-70
2021/01/30 02:09:15;;;;;;;2.73;0.70;;;;;;;;;;10360858;28;20659;-71
2021/01/30 02:14:16;;;;;;;0.67;0.20;;;;;;;;;;10360937;28;20210;-72
2021/01/30 02:19:37;;;;;;;0.20;0.20;;;;;;;;;;10360262;28;20260;-72
2021/01/30 02:24:56;;;;;;;0.73;0.60;;;;;;;;;;10355244;28;20293;-71
2021/01/30 02:30:10;;;;;;;1.87;0.40;;;;;;;;;;10362930;28;20229;-69
2021/01/30 02:35:15;;;;;;;0.10;0.10;;;;;;;;;;10360307;28;20248;-71
2021/01/30 02:40:20;;;;;;;1.83;0.40;;;;;;;;;;10365733;28;20320;-70
2021/01/30 02:45:25;;;;;;;1.80;0.47;;;;;;;;;;10366135;28;20347;-71
2021/01/30 02:50:28;;;;;;;0.43;0.23;;;;;;;;;;10364001;28;20226;-71
2021/01/30 02:55:32;;;;;;;0.30;0.20;;;;;;;;;;10361337;28;20237;-71
2021/01/30 03:00:34;;;;;;;0.20;0.20;;;;;;;;;;10364613;28;20678;-71
2021/01/30 03:05:37;;;;;;;0.93;0.37;;;;;;;;;;10364686;28;20293;-69
2021/01/30 03:10:42;;;;;;;1.27;0.37;;;;;;;;;;10354760;28;20214;-70
2021/01/30 03:15:46;;;;;;;0.53;0.30;;;;;;;;;;10361765;28;20308;-71
2021/01/30 03:20:48;;;;;;;0.40;0.20;;;;;;;;;;10363040;28;20238;-69
2021/01/30 03:25:51;;;;;;;0.83;0.20;;;;;;;;;;10357529;28;20256;-70
2021/01/30 03:30:52;;;;;;;1.10;0.43;;;;;;;;;;10362670;28;20252;-71
2021/01/30 03:35:55;;;;;;;0.73;0.50;;;;;;;;;;10362227;28;20268;-71
2021/01/30 03:40:57;;;;;;;0.93;0.30;;;;;;;;;;10365627;28;20649;-70
2021/01/30 03:45:59;;;;;;;0.20;0.20;;;;;;;;;;10360861;28;20249;-71
2021/01/30 03:51:03;;;;;;;1.23;0.50;;;;;;;;;;10353956;28;20707;-72
2021/01/30 03:56:06;;;;;;;1.57;0.47;;;;;;;;;;10355260;28;20772;-71
2021/01/30 04:01:07;;;;;;;1.50;0.50;;;;;;;;;;10339972;28;20587;-70
2021/01/30 04:06:11;;;;;;;1.53;0.50;;;;;;;;;;10358875;28;20221;-70
2021/01/30 04:11:14;;;;;;;2.03;0.50;;;;;;;;;;10360687;28;20214;-71
2021/01/30 04:16:15;;;;;;;2.50;0.67;;;;;;;;;;10361253;28;20198;-71
2021/01/30 04:21:17;;;;;;;0.60;0.30;;;;;;;;;;10358482;28;21733;-71
2021/01/30 04:26:20;;;;;;;0.40;0.30;;;;;;;;;;10358283;28;20585;-71
2021/01/30 04:31:22;;;;;;;3.60;0.70;;;;;;;;;;10361606;28;20276;-70
2021/01/30 04:36:24;;;;;;;1.47;0.50;;;;;;;;;;10347925;28;20704;-71
2021/01/30 04:41:31;;;;;;;3.40;0.70;;;;;;;;;;10365907;28;20308;-70
2021/01/30 04:46:39;;;;;;;1.27;0.40;;;;;;;;;;10365246;28;20215;-70
2021/01/30 04:51:42;;;;;;;1.43;0.47;;;;;;;;;;10363778;28;20211;-70
2021/01/30 04:56:51;;;;;;;0.83;0.40;;;;;;;;;;10363947;28;20293;-71
2021/01/30 05:01:58;;;;;;;2.47;0.70;;;;;;;;;;10347662;28;20313;-70
2021/01/30 05:07:07;;;;;;;2.23;0.50;;;;;;;;;;10364335;28;20256;-71
2021/01/30 05:12:13;;;;;;;3.93;1.00;;;;;;;;;;10345798;28;20253;-69
2021/01/30 05:17:18;;;;;;;3.63;0.73;;;;;;;;;;10365635;28;20264;-70
2021/01/30 05:22:32;;;;;;;2.20;0.50;;;;;;;;;;10363433;28;20759;-70
2021/01/30 05:27:42;;;;;;;2.63;0.60;;;;;;;;;;10351948;28;20258;-70
2021/01/30 05:32:52;;;;;;;2.47;0.63;;;;;;;;;;10358016;28;20237;-71
2021/01/30 05:37:57;;;;;;;2.63;0.83;;;;;;;;;;10369426;28;20197;-71
2021/01/30 05:43:04;;;;;;;4.50;0.70;;;;;;;;;;10344739;28;20246;-71
2021/01/30 05:48:09;;;;;;;1.90;0.60;;;;;;;;;;10368048;28;20224;-71
2021/01/30 05:53:11;;;;;;;1.73;0.60;;;;;;;;;;10365052;28;20241;-70
2021/01/30 05:58:16;;;;;;;4.90;1.03;;;;;;;;;;10356882;28;20256;-70
2021/01/30 06:03:18;;;;;;;2.73;0.60;;;;;;;;;;10348085;28;20241;-70
2021/01/30 06:08:22;;;;;;;2.90;0.70;;;;;;;;;;10363671;28;20198;-70
2021/01/30 06:13:26;;;;;;;3.70;0.90;;;;;;;;;;10363615;28;20218;-70
2021/01/30 06:18:29;;;;;;;1.30;0.30;;;;;;;;;;10348986;28;20218;-70
2021/01/30 06:23:33;;;;;;;1.60;0.60;;;;;;;;;;10363421;28;20218;-69
2021/01/30 06:28:37;;;;;;;3.63;0.70;;;;;;;;;;10364119;28;20330;-70
2021/01/30 06:33:43;;;;;;;2.00;0.80;;;;;;;;;;10346438;28;20248;-71
2021/01/30 06:38:46;;;;;;;1.63;0.50;;;;;;;;;;10364147;28;20215;-71
2021/01/30 06:43:51;;;;;;;2.10;0.70;;;;;;;;;;10359183;28;20210;-71
2021/01/30 06:48:54;;;;;;;4.33;0.93;;;;;;;;;;10361400;28;20198;-71
2021/01/30 06:53:56;;;;;;;3.03;1.00;;;;;;;;;;10366386;28;20592;-71
2021/01/30 06:59:03;;;;;;;3.93;0.90;;;;;;;;;;10351148;28;20204;-70
2021/01/30 07:04:15;;;;;;;2.00;0.50;;;;;;;;;;10359705;28;20214;-70
2021/01/30 07:09:23;;;;;;;5.13;1.00;;;;;;;;;;10367358;28;20232;-70
2021/01/30 07:14:38;;;;;;;2.00;0.80;;;;;;;;;;10350494;28;20273;-71
2021/01/30 07:19:48;;;;;;;4.57;1.07;;;;;;;;;;10365907;28;20217;-70
2021/01/30 07:24:52;;;;;;;3.20;0.90;;;;;;;;;;10339073;28;20286;-71
2021/01/30 07:29:58;;;;;;;2.13;0.80;;;;;;;;;;10360037;28;20245;-70
2021/01/30 07:35:05;;;;;;;5.00;1.43;;;;;;;;;;10361243;28;20667;-70
2021/01/30 07:40:11;;;;;;;4.93;1.10;;;;;;;;;;10363315;28;20244;-70
2021/01/30 07:45:15;;;;;;;1.63;0.73;;;;;;;;;;10358102;28;20483;-72
2021/01/30 07:50:21;;;;;;;6.13;1.30;;;;;;;;;;10357892;28;20290;-71
2021/01/30 07:55:23;;;;;;;4.90;1.30;;;;;;;;;;10360861;28;20426;-71
2021/01/30 08:00:32;;;;;;;4.30;1.13;;;;;;;;;;10359951;28;20194;-70
2021/01/30 08:05:38;;;;;;;3.40;0.97;;;;;;;;;;10364990;28;20282;-69
2021/01/30 08:10:49;;;;;;;6.07;1.30;;;;;;;;;;10371716;28;20535;-69
2021/01/30 08:15:57;;;;;;;3.30;0.80;;;;;;;;;;10358904;28;20695;-70
2021/01/30 08:21:06;;;;;;;4.03;1.33;;;;;;;;;;10368117;28;20211;-68
2021/01/30 08:26:10;;;;;;;3.57;1.03;;;;;;;;;;10361898;28;20222;-71
2021/01/30 08:31:27;;;;;;;5.10;1.30;;;;;;;;;;10358409;28;20234;-69
2021/01/30 08:36:34;;;;;;;2.67;0.90;;;;;;;;;;10366901;28;20280;-71
2021/01/30 08:41:41;;;;;;;6.47;1.20;;;;;;;;;;10365264;28;20250;-70
2021/01/30 08:46:44;;;;;;;3.80;1.00;;;;;;;;;;10362088;28;20202;-72
2021/01/30 08:51:48;;;;;;;6.17;1.50;;;;;;;;;;10366545;28;20272;-71
2021/01/30 08:56:50;;;;;;;6.77;1.33;;;;;;;;;;10365946;28;20596;-72
2021/01/30 09:01:52;;;;;;;4.50;1.30;;;;;;;;;;10369537;28;20316;-70
2021/01/30 09:06:56;;;;;;;4.80;1.30;;;;;;;;;;10367294;28;20647;-70
2021/01/30 09:11:59;;;;;;;8.07;2.27;;;;;;;;;;10359517;28;20215;-70
2021/01/30 09:17:08;;;;;;;5.40;1.40;;;;;;;;;;10374755;28;20203;-69
2021/01/30 09:22:18;;;;;;;2.47;0.63;;;;;;;;;;10365236;28;20262;-70
2021/01/30 09:27:26;;;;;;;6.40;1.37;;;;;;;;;;10358391;28;20198;-70
2021/01/30 09:32:45;;;;;;;4.80;1.10;;;;;;;;;;10354008;28;20210;-70
2021/01/30 09:37:51;;;;;;;8.17;1.30;;;;;;;;;;10347145;28;20399;-70
2021/01/30 09:42:56;;;;;;;6.80;1.47;;;;;;;;;;10360734;28;20309;-70
2021/01/30 09:47:59;;;;;;;6.33;1.40;;;;;;;;;;10359286;28;20263;-69
2021/01/30 09:53:04;;;;;;;7.23;1.50;;;;;;;;;;10357217;28;20246;-69
2021/01/30 09:58:07;;;;;;;4.23;1.53;;;;;;;;;;10348212;28;20582;-70
2021/01/30 10:03:15;;;;;;;7.23;1.67;;;;;;;;;;10368587;28;20213;-70
2021/01/30 10:08:23;;;;;;;5.77;1.30;;;;;;;;;;10349148;28;20195;-70
2021/01/30 10:13:25;;;;;;;6.43;1.40;;;;;;;;;;10352921;28;20297;-71
2021/01/30 10:18:27;;;;;;;5.20;1.70;;;;;;;;;;10362897;28;20567;-70
2021/01/30 10:23:32;;;;;;;3.90;1.53;;;;;;;;;;10375335;28;20268;-70
2021/01/30 10:28:40;;;;;;;5.03;1.70;;;;;;;;;;10367812;28;20611;-70
2021/01/30 10:33:44;;;;;;;5.43;1.83;;;;;;;;;;10352196;28;20233;-68
2021/01/30 10:38:47;;;;;;;6.90;2.23;;;;;;;;;;10374785;28;20431;-69
2021/01/30 10:43:57;;;;;;;6.87;1.60;;;;;;;;;;10349980;28;20226;-71
2021/01/30 10:49:04;;;;;;;3.80;1.37;;;;;;;;;;10355796;28;20205;-70
2021/01/30 10:54:21;;;;;;;6.03;1.67;;;;;;;;;;10362123;28;20214;-71
2021/01/30 10:59:25;;;;;;;3.78;1.33;;;;;;;;;;10357732;28;20599;-71
2021/01/30 11:04:27;;;;;;;7.43;1.95;;;;;;;;;;10365322;28;20218;-70
2021/01/30 11:09:32;;;;;;;5.80;1.70;;;;;;;;;;10338836;28;20309;-70
2021/01/30 11:14:34;;;;;;;5.47;1.73;;;;;;;;;;10356167;28;20573;-68
2021/01/30 11:19:40;;;;;;;6.00;1.77;;;;;;;;;;10359788;28;20203;-69
2021/01/30 11:24:47;;;;;;;6.43;1.60;;;;;;;;;;10370112;28;20231;-70
2021/01/30 11:29:49;;;;;;;5.50;1.33;;;;;;;;;;10357616;28;20213;-68
2021/01/30 11:34:52;;;;;;;4.63;1.30;;;;;;;;;;10360948;28;20222;-69
2021/01/30 11:39:54;;;;;;;7.07;1.70;;;;;;;;;;10336372;28;20309;-71
2021/01/30 11:44:59;;;;;;;2.93;0.90;;;;;;;;;;10362877;28;20571;-70
2021/01/30 11:50:04;;;;;;;8.30;1.60;;;;;;;;;;10330820;28;20199;-70
2021/01/30 11:55:07;;;;;;;5.40;1.23;;;;;;;;;;10363679;28;20705;-69
2021/01/30 12:00:10;;;;;;;6.73;1.50;;;;;;;;;;10344702;28;20293;-70
2021/01/30 12:05:14;;;;;;;5.60;1.00;;;;;;;;;;10358522;28;20253;-70
2021/01/30 12:10:18;;;;;;;4.90;1.13;;;;;;;;;;10364783;28;20202;-71
2021/01/30 12:15:20;;;;;;;5.43;0.80;;;;;;;;;;10346058;28;20198;-70
2021/01/30 12:20:23;;;;;;;6.83;1.80;;;;;;;;;;10351471;28;20194;-70
2021/01/30 12:25:25;;;;;;;9.30;1.60;;;;;;;;;;10358777;28;20210;-70
2021/01/30 12:30:28;;;;;;;3.60;1.10;;;;;;;;;;10345584;28;20858;-69
2021/01/30 12:35:32;;;;;;;5.67;1.20;;;;;;;;;;10350686;28;20190;-71
2021/01/30 12:40:36;;;;;;;4.40;0.97;;;;;;;;;;10337741;28;20249;-69
2021/01/30 12:45:42;;;;;;;3.30;1.23;;;;;;;;;;10355629;28;20614;-71
2021/01/30 12:50:45;;;;;;;8.13;2.07;;;;;;;;;;10352740;28;20261;-71
2021/01/30 12:55:47;;;;;;;8.10;1.73;;;;;;;;;;10353937;28;20198;-70
2021/01/30 13:00:50;;;;;;;5.17;1.40;;;;;;;;;;10348624;28;20230;-70
2021/01/30 13:05:52;;;;;;;7.77;1.77;;;;;;;;;;10362519;28;20260;-69
2021/01/30 13:10:55;;;;;;;4.00;1.23;;;;;;;;;;10361456;28;20309;-70
2021/01/30 13:15:56;;;;;;;5.87;1.30;;;;;;;;;;10341681;28;20270;-71
2021/01/30 13:20:58;;;;;;;5.47;1.37;;;;;;;;;;10355120;28;20241;-70
2021/01/30 13:26:04;;;;;;;5.30;1.47;;;;;;;;;;10365501;28;20225;-69
2021/01/30 13:31:05;;;;;;;4.70;1.43;;;;;;;;;;10364723;28;20226;-71
2021/01/30 13:36:07;;;;;;;5.13;1.30;;;;;;;;;;10344965;28;20199;-70
2021/01/30 13:41:09;;;;;;;3.30;1.30;;;;;;;;;;10369013;28;20228;-70
2021/01/30 13:46:11;;;;;;;4.57;1.40;;;;;;;;;;10367405;28;20683;-71
2021/01/30 13:51:12;;;;;;;4.63;1.17;;;;;;;;;;10348908;28;20668;-70
2021/01/30 13:56:15;;;;;;;2.70;0.80;;;;;;;;;;10366800;28;20225;-70
2021/01/30 14:01:17;;;;;;;3.30;0.90;;;;;;;;;;10353190;28;20207;-69
2021/01/30 14:06:19;;;;;;;3.43;1.23;;;;;;;;;;10368207;28;20277;-69
2021/01/30 14:11:22;;;;;;;3.03;1.00;;;;;;;;;;10376418;28;20226;-69
2021/01/30 14:16:23;;;;;;;2.50;0.80;;;;;;;;;;10372159;28;20256;-70
2021/01/30 14:21:26;;;;;;;3.27;1.00;;;;;;;;;;10383153;28;20290;-70
2021/01/30 14:26:30;;;;;;;1.57;0.30;;;;;;;;;;10363879;28;20202;-69
2021/01/30 14:31:34;;;;;;;4.53;1.07;;;;;;;;;;10356889;28;20526;-69
2021/01/30 14:36:36;;;;;;;2.20;0.60;;;;;;;;;;10372087;28;20198;-70
2021/01/30 14:41:38;;;;;;;1.73;0.57;;;;;;;;;;10364314;28;20538;-71
2021/01/30 14:46:41;;;;;;;2.03;0.70;;;;;;;;;;10352646;28;20667;-69
2021/01/30 14:51:43;;;;;;;0.63;0.37;;;;;;;;;;10346825;28;20210;-69
2021/01/30 14:56:45;;;;;;;1.40;0.60;;;;;;;;;;10356954;28;20198;-69
2021/01/30 15:01:47;;;;;;;1.97;0.60;;;;;;;;;;10384558;28;20222;-69
2021/01/30 15:06:49;;;;;;;2.60;0.60;;;;;;;;;;10372933;28;20576;-69
2021/01/30 15:11:52;;;;;;;1.80;0.70;;;;;;;;;;10359514;28;20214;-68
2021/01/30 15:16:53;;;;;;;3.17;0.90;;;;;;;;;;10372523;28;20265;-69
2021/01/30 15:21:55;;;;;;;3.03;0.90;;;;;;;;;;10362946;28;20214;-70
2021/01/30 15:26:58;;;;;;;2.53;1.00;;;;;;;;;;10366351;28;20194;-70
2021/01/30 15:31:59;;;;;;;3.80;1.10;;;;;;;;;;10354080;28;20697;-70
2021/01/30 15:37:04;;;;;;;1.10;0.90;;;;;;;;;;10358661;28;20297;-69
2021/01/30 15:42:06;;;;;;;3.80;0.90;;;;;;;;;;10361128;28;20253;-69
2021/01/30 15:47:08;;;;;;;2.90;0.90;;;;;;;;;;10366464;28;20203;-69
2021/01/30 15:52:10;;;;;;;2.00;0.90;;;;;;;;;;10359124;28;20236;-69
2021/01/30 15:57:13;;;;;;;4.07;1.40;;;;;;;;;;10362379;28;20202;-69
2021/01/30 16:02:14;;;;;;;3.90;0.97;;;;;;;;;;10358950;28;20216;-69
2021/01/30 16:07:16;;;;;;;2.47;1.10;;;;;;;;;;10363068;28;20607;-68
2021/01/30 16:12:18;;;;;;;2.87;1.00;;;;;;;;;;10358070;28;20218;-69
2021/01/30 16:17:20;;;;;;;2.73;1.20;;;;;;;;;;10364784;28;20314;-68
2021/01/30 16:22:22;;;;;;;4.00;1.20;;;;;;;;;;10370674;28;20217;-69
2021/01/30 16:27:24;;;;;;;6.57;1.50;;;;;;;;;;10371858;28;20222;-70
2021/01/30 16:32:27;;;;;;;5.23;1.50;;;;;;;;;;10350890;28;20230;-69
2021/01/30 16:37:30;;;;;;;3.33;1.03;;;;;;;;;;10350050;28;20608;-71
2021/01/30 16:42:33;;;;;;;1.27;0.83;;;;;;;;;;10371948;28;20214;-69
2021/01/30 16:47:34;;;;;;;3.93;1.20;;;;;;;;;;10364007;28;20217;-68
2021/01/30 16:52:38;;;;;;;5.83;1.60;;;;;;;;;;10352253;28;20257;-69
2021/01/30 16:57:41;;;;;;;1.90;0.87;;;;;;;;;;10370332;28;20262;-70
2021/01/30 17:02:44;;;;;;;4.33;1.00;;;;;;;;;;10353921;28;20237;-68
2021/01/30 17:07:46;;;;;;;3.97;1.40;;;;;;;;;;10372820;28;20751;-69
2021/01/30 17:12:50;;;;;;;3.07;1.17;;;;;;;;;;10380683;28;20221;-69
2021/01/30 17:17:52;;;;;;;4.43;1.07;;;;;;;;;;10371438;28;20194;-70
2021/01/30 17:22:54;;;;;;;2.70;1.50;;;;;;;;;;10371084;28;20214;-69
2021/01/30 17:27:56;;;;;;;4.50;1.30;;;;;;;;;;10367557;28;20595;-69
2021/01/30 17:32:58;;;;;;;2.70;1.10;;;;;;;;;;10373496;28;20277;-70
2021/01/30 17:38:04;;;;;;;1.80;1.00;;;;;;;;;;10373416;28;20206;-70
2021/01/30 17:43:08;;;;;;;2.83;1.10;;;;;;;;;;10366635;28;20214;-70
2021/01/30 17:48:10;;;;;;;7.67;2.40;;;;;;;;;;10362069;28;20599;-70
2021/01/30 17:53:12;;;;;;;4.07;1.53;;;;;;;;;;10373252;28;20724;-69
2021/01/30 17:58:15;;;;;;;4.63;1.70;;;;;;;;;;10369731;28;20200;-69
2021/01/30 18:03:16;;;;;;;6.17;2.50;;;;;;;;;;10374097;28;20309;-69
2021/01/30 18:08:18;;;;;;;4.03;1.83;;;;;;;;;;10373632;28;20728;-69
2021/01/30 18:13:22;;;;;;;6.73;2.90;;;;;;;;;;10373342;28;20217;-71
2021/01/30 18:18:24;;;;;;;4.77;2.07;;;;;;;;;;10371881;28;20196;-68
2021/01/30 18:23:27;;;;;;;4.77;2.00;;;;;;;;;;10364490;28;20733;-69
2021/01/30 18:28:30;;;;;;;6.00;2.27;;;;;;;;;;10371924;28;20277;-69
2021/01/30 18:33:32;;;;;;;6.87;2.50;;;;;;;;;;10346947;28;20210;-69
2021/01/30 18:38:33;;;;;;;7.33;2.53;;;;;;;;;;10378901;28;20675;-70
2021/01/30 18:43:37;;;;;;;7.77;2.50;;;;;;;;;;10371596;28;20214;-70
2021/01/30 18:48:40;;;;;;;6.30;2.50;;;;;;;;;;10354645;28;20194;-70
2021/01/30 18:53:42;;;;;;;8.57;2.70;;;;;;;;;;10366390;28;20244;-71
2021/01/30 18:58:45;;;;;;;6.43;2.20;;;;;;;;;;10353258;28;20214;-70
2021/01/30 19:03:48;;;;;;;5.97;1.73;;;;;;;;;;10347740;28;20240;-70
2021/01/30 19:08:50;;;;;;;6.47;2.37;;;;;;;;;;10356471;28;20799;-69
2021/01/30 19:13:52;;;;;;;5.73;2.33;;;;;;;;;;10369159;28;20234;-69
2021/01/30 19:18:54;;;;;;;11.03;4.23;;;;;;;;;;10370530;28;20206;-69
2021/01/30 19:23:56;;;;;;;6.97;2.10;;;;;;;;;;10354292;28;20238;-69
2021/01/30 19:28:59;;;;;;;5.13;2.30;;;;;;;;;;10377532;28;20341;-70
2021/01/30 19:34:04;;;;;;;5.40;1.83;;;;;;;;;;10363545;28;20222;-70
2021/01/30 19:39:06;;;;;;;3.77;1.90;;;;;;;;;;10377394;28;20221;-70
2021/01/30 19:44:09;;;;;;;5.33;2.50;;;;;;;;;;10359971;28;20237;-69
2021/01/30 19:49:15;;;;;;;4.20;2.00;;;;;;;;;;10349968;28;20616;-70
2021/01/30 19:54:17;;;;;;;5.20;2.70;;;;;;;;;;10366154;28;20222;-69
2021/01/30 19:59:20;;;;;;;6.03;2.77;;;;;;;;;;10381525;28;20629;-70
2021/01/30 20:04:24;;;;;;;4.60;2.37;;;;;;;;;;10386211;28;20206;-70
2021/01/30 20:09:26;;;;;;;3.57;1.70;;;;;;;;;;10375817;28;20189;-70
2021/01/30 20:14:28;;;;;;;4.70;2.07;;;;;;;;;;10362273;28;20219;-69
2021/01/30 20:19:30;;;;;;;3.87;1.90;;;;;;;;;;10348366;28;20225;-68
2021/01/30 20:24:31;;;;;;;8.30;2.90;;;;;;;;;;10388759;28;20218;-71
2021/01/30 20:29:34;;;;;;;4.07;1.80;;;;;;;;;;10385127;28;20607;-70
2021/01/30 20:34:36;;;;;;;3.70;1.70;;;;;;;;;;10378403;28;20286;-69
2021/01/30 20:39:40;;;;;;;5.43;2.77;;;;;;;;;;10384212;28;20207;-68
2021/01/30 20:44:43;;;;;;;3.00;1.30;;;;;;;;;;10382143;28;20222;-70
2021/01/30 20:49:45;;;;;;;4.17;1.37;;;;;;;;;;10379857;28;20194;-70
2021/01/30 20:54:49;;;;;;;4.20;1.63;;;;;;;;;;10385493;28;20214;-69
2021/01/30 20:59:52;;;;;;;5.20;1.83;;;;;;;;;;10378601;28;20210;-71
2021/01/30 21:04:54;;;;;;;4.50;1.83;;;;;;;;;;10380379;28;20563;-69
2021/01/30 21:09:55;;;;;;;3.13;1.90;;;;;;;;;;10372538;28;20710;-69
2021/01/30 21:14:58;;;;;;;4.10;2.10;;;;;;;;;;10368982;28;20698;-70
2021/01/30 21:20:00;;;;;;;3.80;2.10;;;;;;;;;;10364218;28;20186;-70
2021/01/30 21:25:03;;;;;;;6.37;2.60;;;;;;;;;;10365847;28;20784;-70
2021/01/30 21:30:07;;;;;;;4.53;2.13;;;;;;;;;;10356142;28;20197;-70
2021/01/30 21:35:10;;;;;;;4.70;2.30;;;;;;;;;;10367794;28;20294;-69
2021/01/30 21:40:12;;;;;;;4.93;2.20;;;;;;;;;;10369442;28;20639;-71
2021/01/30 21:45:15;;;;;;;4.80;2.30;;;;;;;;;;10364599;28;20724;-69
2021/01/30 21:50:17;;;;;;;5.77;2.87;;;;;;;;;;10368333;28;20204;-70
2021/01/30 21:55:18;;;;;;;5.93;2.80;;;;;;;;;;10374688;28;20271;-70
2021/01/30 22:00:21;;;;;;;5.13;2.20;;;;;;;;;;10378606;28;20253;-71
2021/01/30 22:05:23;;;;;;;5.43;2.80;;;;;;;;;;10356250;28;20278;-70
2021/01/30 22:10:25;;;;;;;4.40;2.30;;;;;;;;;;10364494;28;20639;-72
2021/01/30 22:15:27;;;;;;;5.27;2.70;;;;;;;;;;10364120;28;20253;-72
2021/01/30 22:20:29;;;;;;;5.33;2.60;;;;;;;;;;10365935;28;20640;-69
2021/01/30 22:25:31;;;;;;;5.93;2.57;;;;;;;;;;10359297;28;20242;-71
2021/01/30 22:30:35;;;;;;;6.33;2.90;;;;;;;;;;10357816;28;20238;-70
2021/01/30 22:35:37;;;;;;;5.47;2.47;;;;;;;;;;10351218;28;20225;-70
2021/01/30 22:40:38;;;;;;;5.57;2.60;;;;;;;;;;10353964;28;20222;-70
2021/01/30 22:45:41;;;;;;;5.10;2.30;;;;;;;;;;10358577;28;20531;-71
2021/01/30 22:50:43;;;;;;;4.63;2.40;;;;;;;;;;10338822;28;20249;-70
2021/01/30 22:55:44;;;;;;;5.80;2.47;;;;;;;;;;10361281;28;20195;-69
2021/01/30 23:00:48;;;;;;;7.83;3.10;;;;;;;;;;10362165;28;20671;-70
2021/01/30 23:05:50;;;;;;;6.13;2.80;;;;;;;;;;10361459;28;20619;-69
2021/01/30 23:10:51;;;;;;;6.47;3.07;;;;;;;;;;10360896;28;20277;-70
2021/01/30 23:15:54;;;;;;;6.07;2.77;;;;;;;;;;10346113;28;20229;-70
2021/01/30 23:20:57;;;;;;;6.73;3.20;;;;;;;;;;10359829;28;20361;-70
2021/01/30 23:25:59;;;;;;;7.57;3.30;;;;;;;;;;10357227;28;20245;-71
2021/01/30 23:31:03;;;;;;;6.73;2.83;;;;;;;;;;10329149;28;20224;-70
2021/01/30 23:36:06;;;;;;;6.37;2.80;;;;;;;;;;10356054;28;20559;-70
2021/01/30 23:41:08;;;;;;;6.30;2.70;;;;;;;;;;10357897;28;20281;-70
2021/01/30 23:46:10;;;;;;;4.47;2.07;;;;;;;;;;10361969;28;21516;-70
2021/01/30 23:51:11;;;;;;;5.30;2.17;;;;;;;;;;10362675;28;20564;-71
2021/01/30 23:56:13;;;;;;;6.67;2.80;;;;;;;;;;10358044;28;20198;-71
